createdAt,value
2018-08-19T00:00:09.738Z,17.32
2018-08-19T00:01:09.997Z,17.26
2018-08-19T00:02:09.979Z,17.25
2018-08-19T00:03:09.899Z,17.23
2018-08-19T00:04:09.424Z,17.23
2018-08-19T00:05:09.952Z,17.2
2018-08-19T00:06:09.937Z,17.2
2018-08-19T00:07:09.654Z,17.22
2018-08-19T00:08:09.909Z,17.18
2018-08-19T00:09:09.364Z,17.25
2018-08-19T00:10:09.620Z,17.17
2018-08-19T00:11:09.922Z,17.18
2018-08-19T00:12:09.598Z,17.14
2018-08-19T00:13:09.316Z,17.15
2018-08-19T00:14:09.842Z,17.13
2018-08-19T00:15:09.564Z,17.1
2018-08-19T00:16:09.810Z,17.08
2018-08-19T00:17:09.845Z,17.11
2018-08-19T00:18:09.786Z,17.11
2018-08-19T00:19:09.516Z,17.13
2018-08-19T00:20:09.761Z,17.13
2018-08-19T00:21:09.221Z,17.08
2018-08-19T00:22:09.222Z,17.11
2018-08-19T00:23:09.467Z,17.14
2018-08-19T00:24:09.455Z,17.13
2018-08-19T00:25:09.707Z,17.13
2018-08-19T00:26:09.428Z,17.04
2018-08-19T00:27:09.689Z,17.03
2018-08-19T00:28:09.668Z,17.07
2018-08-19T00:29:09.410Z,16.95
2018-08-19T00:30:09.649Z,16.93
2018-08-19T00:31:09.160Z,16.9
2018-08-19T00:32:09.372Z,16.93
2018-08-19T00:33:09.087Z,16.98
2018-08-19T00:34:09.601Z,16.9
2018-08-19T00:35:09.321Z,16.89
2018-08-19T00:36:09.311Z,16.85
2018-08-19T00:37:09.576Z,16.83
2018-08-19T00:38:09.286Z,16.88
2018-08-19T00:39:09.014Z,16.86
2018-08-19T00:40:09.528Z,16.95
2018-08-19T00:41:08.990Z,16.88
2018-08-19T00:42:09.262Z,16.85
2018-08-19T00:43:09.488Z,16.77
2018-08-19T00:44:09.224Z,16.85
2018-08-19T00:45:08.957Z,16.86
2018-08-19T00:46:09.188Z,16.77
2018-08-19T00:47:09.183Z,16.8
2018-08-19T00:48:09.639Z,16.8
2018-08-19T00:49:09.156Z,16.96
2018-08-19T00:50:09.145Z,16.8
2018-08-19T00:51:09.392Z,16.67
2018-08-19T00:52:09.384Z,16.68
2018-08-19T00:53:09.120Z,16.83
2018-08-19T00:54:08.832Z,16.77
2018-08-19T00:55:09.146Z,16.81
2018-08-19T00:56:09.103Z,16.83
2018-08-19T00:57:08.799Z,16.81
2018-08-19T00:58:08.777Z,16.73
2018-08-19T00:59:09.031Z,16.65
2018-08-19T01:00:09.037Z,16.73
2018-08-19T01:01:08.746Z,16.8
2018-08-19T01:02:08.998Z,16.77
2018-08-19T01:03:08.983Z,16.77
2018-08-19T01:04:08.979Z,16.81
2018-08-19T01:05:09.237Z,16.85
2018-08-19T01:06:08.953Z,16.74
2018-08-19T01:07:08.938Z,16.71
2018-08-19T01:08:09.194Z,16.74
2018-08-19T01:09:08.918Z,16.75
2018-08-19T01:10:08.910Z,16.78
2018-08-19T01:11:08.887Z,16.71
2018-08-19T01:12:09.159Z,16.7
2018-08-19T01:13:08.879Z,16.71
2018-08-19T01:14:08.848Z,16.67
2018-08-19T01:15:08.835Z,16.71
2018-08-19T01:16:09.092Z,16.67
2018-08-19T01:17:08.563Z,16.67
2018-08-19T01:18:08.537Z,16.68
2018-08-19T01:19:08.523Z,16.62
2018-08-19T01:20:08.781Z,16.65
2018-08-19T01:21:09.038Z,16.65
2018-08-19T01:22:08.755Z,16.55
2018-08-19T01:23:08.480Z,16.6
2018-08-19T01:24:08.729Z,16.59
2018-08-19T01:25:08.721Z,16.62
2018-08-19T01:26:08.706Z,16.6
2018-08-19T01:27:08.698Z,16.6
2018-08-19T01:28:08.951Z,16.56
2018-08-19T01:29:08.671Z,16.5
2018-08-19T01:30:08.657Z,16.53
2018-08-19T01:31:08.661Z,16.49
2018-08-19T01:32:08.896Z,16.45
2018-08-19T01:33:08.621Z,16.53
2018-08-19T01:34:08.606Z,16.55
2018-08-19T01:35:08.592Z,16.45
2018-08-19T01:36:08.850Z,16.49
2018-08-19T01:37:08.568Z,16.44
2018-08-19T01:38:08.559Z,16.44
2018-08-19T01:39:08.811Z,16.45
2018-08-19T01:40:08.800Z,16.5
2018-08-19T01:41:08.785Z,16.41
2018-08-19T01:42:08.241Z,16.48
2018-08-19T01:43:08.497Z,16.44
2018-08-19T01:44:08.218Z,16.41
2018-08-19T01:45:08.791Z,16.4
2018-08-19T01:46:08.464Z,16.34
2018-08-19T01:47:08.732Z,16.31
2018-08-19T01:48:08.436Z,16.37
2018-08-19T01:49:08.156Z,16.45
2018-08-19T01:50:08.673Z,16.35
2018-08-19T01:51:08.687Z,16.42
2018-08-19T01:52:08.654Z,16.37
2018-08-19T01:53:08.375Z,16.33
2018-08-19T01:54:08.633Z,16.34
2018-08-19T01:55:08.619Z,16.4
2018-08-19T01:56:08.607Z,16.33
2018-08-19T01:57:08.327Z,16.3
2018-08-19T01:58:08.587Z,16.3
2018-08-19T01:59:08.301Z,16.31
2018-08-19T02:00:08.548Z,16.3
2018-08-19T02:01:08.003Z,16.26
2018-08-19T02:02:08.525Z,16.26
2018-08-19T02:03:08.510Z,16.26
2018-08-19T02:04:08.235Z,16.22
2018-08-19T02:05:08.509Z,16.2
2018-08-19T02:06:08.218Z,16.3
2018-08-19T02:07:07.934Z,16.26
2018-08-19T02:08:08.190Z,16.16
2018-08-19T02:09:08.169Z,16.22
2018-08-19T02:10:07.896Z,16.15
2018-08-19T02:11:07.881Z,16.18
2018-08-19T02:12:08.134Z,16.16
2018-08-19T02:13:08.120Z,16.18
2018-08-19T02:14:08.108Z,16.15
2018-08-19T02:15:07.844Z,16.2
2018-08-19T02:16:08.089Z,16.2
2018-08-19T02:17:08.356Z,16.16
2018-08-19T02:18:08.065Z,16.15
2018-08-19T02:19:08.046Z,16.18
2018-08-19T02:20:08.033Z,16.18
2018-08-19T02:21:07.761Z,16.2
2018-08-19T02:22:08.271Z,16.18
2018-08-19T02:23:08.260Z,16.14
2018-08-19T02:24:07.716Z,16.12
2018-08-19T02:25:07.755Z,16.15
2018-08-19T02:26:07.963Z,16.14
2018-08-19T02:27:08.221Z,16.18
2018-08-19T02:28:07.671Z,16.16
2018-08-19T02:29:07.927Z,16.14
2018-08-19T02:30:07.913Z,16.2
2018-08-19T02:31:07.902Z,16.15
2018-08-19T02:32:07.619Z,16.07
2018-08-19T02:33:08.155Z,16.11
2018-08-19T02:34:07.866Z,16.15
2018-08-19T02:35:07.582Z,16.15
2018-08-19T02:36:07.836Z,16.16
2018-08-19T02:37:07.829Z,16.06
2018-08-19T02:38:08.084Z,16.09
2018-08-19T02:39:07.798Z,16.04
2018-08-19T02:40:07.785Z,16.01
2018-08-19T02:41:08.036Z,16.07
2018-08-19T02:42:07.491Z,16.06
2018-08-19T02:43:07.743Z,16.09
2018-08-19T02:44:07.731Z,16.06
2018-08-19T02:45:07.467Z,16.06
2018-08-19T02:46:07.978Z,15.97
2018-08-19T02:47:07.964Z,15.97
2018-08-19T02:48:08.147Z,15.88
2018-08-19T02:49:07.945Z,15.92
2018-08-19T02:50:07.665Z,15.89
2018-08-19T02:51:07.645Z,15.85
2018-08-19T02:52:07.631Z,15.85
2018-08-19T02:53:07.644Z,15.85
2018-08-19T02:54:07.614Z,15.81
2018-08-19T02:55:07.596Z,15.84
2018-08-19T02:56:07.589Z,15.89
2018-08-19T02:57:07.775Z,15.76
2018-08-19T02:58:07.822Z,15.82
2018-08-19T02:59:07.283Z,15.84
2018-08-19T03:00:07.548Z,15.82
2018-08-19T03:01:07.552Z,15.79
2018-08-19T03:02:07.243Z,15.85
2018-08-19T03:03:07.505Z,15.76
2018-08-19T03:04:07.491Z,15.78
2018-08-19T03:05:07.214Z,15.78
2018-08-19T03:06:07.454Z,15.81
2018-08-19T03:07:07.440Z,15.78
2018-08-19T03:08:07.428Z,15.78
2018-08-19T03:09:07.693Z,15.86
2018-08-19T03:10:07.417Z,15.79
2018-08-19T03:11:07.403Z,15.79
2018-08-19T03:12:07.111Z,15.81
2018-08-19T03:13:07.696Z,15.76
2018-08-19T03:14:07.352Z,15.78
2018-08-19T03:15:07.477Z,15.84
2018-08-19T03:16:07.060Z,15.84
2018-08-19T03:17:07.322Z,15.84
2018-08-19T03:18:07.560Z,15.75
2018-08-19T03:19:07.290Z,15.72
2018-08-19T03:20:07.539Z,15.74
2018-08-19T03:21:07.541Z,15.7
2018-08-19T03:22:07.523Z,15.74
2018-08-19T03:23:07.519Z,15.74
2018-08-19T03:24:07.237Z,15.72
2018-08-19T03:25:06.944Z,15.72
2018-08-19T03:26:07.208Z,15.75
2018-08-19T03:27:07.188Z,15.72
2018-08-19T03:28:07.176Z,15.72
2018-08-19T03:29:07.430Z,15.72
2018-08-19T03:30:07.433Z,15.72
2018-08-19T03:31:07.137Z,15.78
2018-08-19T03:32:07.400Z,15.7
2018-08-19T03:33:07.381Z,15.61
2018-08-19T03:34:07.110Z,15.64
2018-08-19T03:35:07.091Z,15.66
2018-08-19T03:36:07.075Z,15.67
2018-08-19T03:37:07.319Z,15.72
2018-08-19T03:38:07.302Z,15.68
2018-08-19T03:39:06.796Z,15.66
2018-08-19T03:40:07.296Z,15.61
2018-08-19T03:41:07.011Z,15.6
2018-08-19T03:42:06.999Z,15.59
2018-08-19T03:43:06.982Z,15.63
2018-08-19T03:44:06.978Z,15.66
2018-08-19T03:45:06.693Z,15.59
2018-08-19T03:46:06.679Z,15.66
2018-08-19T03:47:06.670Z,15.56
2018-08-19T03:48:07.179Z,15.61
2018-08-19T03:49:06.647Z,15.61
2018-08-19T03:50:06.629Z,15.6
2018-08-19T03:51:07.141Z,15.63
2018-08-19T03:52:06.864Z,15.61
2018-08-19T03:53:06.856Z,15.61
2018-08-19T03:54:06.840Z,15.59
2018-08-19T03:55:07.112Z,15.57
2018-08-19T03:56:06.549Z,15.46
2018-08-19T03:57:06.539Z,15.51
2018-08-19T03:58:07.090Z,15.48
2018-08-19T03:59:06.779Z,15.56
2018-08-19T04:00:06.492Z,15.56
2018-08-19T04:01:06.758Z,15.57
2018-08-19T04:02:06.743Z,15.54
2018-08-19T04:03:06.477Z,15.56
2018-08-19T04:04:06.707Z,15.59
2018-08-19T04:05:06.958Z,15.56
2018-08-19T04:06:06.685Z,15.52
2018-08-19T04:07:06.677Z,15.54
2018-08-19T04:08:06.661Z,15.49
2018-08-19T04:09:06.648Z,15.51
2018-08-19T04:10:06.636Z,15.54
2018-08-19T04:11:06.352Z,15.56
2018-08-19T04:12:06.605Z,15.52
2018-08-19T04:13:06.589Z,15.48
2018-08-19T04:14:06.576Z,15.49
2018-08-19T04:15:06.845Z,15.48
2018-08-19T04:16:06.558Z,15.52
2018-08-19T04:17:06.580Z,15.48
2018-08-19T04:18:06.529Z,15.46
2018-08-19T04:19:06.509Z,15.57
2018-08-19T04:20:06.505Z,15.51
2018-08-19T04:21:06.224Z,15.45
2018-08-19T04:22:06.482Z,15.56
2018-08-19T04:23:06.746Z,15.48
2018-08-19T04:24:06.189Z,15.48
2018-08-19T04:25:06.434Z,15.51
2018-08-19T04:26:06.688Z,15.49
2018-08-19T04:27:06.411Z,15.54
2018-08-19T04:28:06.394Z,15.49
2018-08-19T04:29:06.432Z,15.51
2018-08-19T04:30:06.370Z,15.45
2018-08-19T04:31:06.621Z,15.56
2018-08-19T04:32:06.078Z,15.45
2018-08-19T04:33:06.350Z,15.56
2018-08-19T04:34:06.592Z,15.54
2018-08-19T04:35:06.314Z,15.45
2018-08-19T04:36:06.586Z,15.48
2018-08-19T04:37:06.015Z,15.54
2018-08-19T04:38:06.263Z,15.57
2018-08-19T04:39:05.989Z,15.52
2018-08-19T04:40:05.977Z,15.57
2018-08-19T04:41:06.224Z,15.6
2018-08-19T04:42:06.264Z,15.56
2018-08-19T04:43:05.946Z,15.54
2018-08-19T04:44:06.460Z,15.56
2018-08-19T04:45:05.909Z,15.51
2018-08-19T04:46:06.160Z,15.54
2018-08-19T04:47:06.148Z,15.56
2018-08-19T04:48:06.370Z,15.49
2018-08-19T04:49:06.135Z,15.57
2018-08-19T04:50:06.110Z,15.59
2018-08-19T04:51:06.100Z,15.59
2018-08-19T04:52:06.081Z,15.57
2018-08-19T04:53:06.079Z,15.64
2018-08-19T04:54:06.335Z,15.56
2018-08-19T04:55:06.328Z,15.56
2018-08-19T04:56:06.303Z,15.57
2018-08-19T04:57:06.028Z,15.68
2018-08-19T04:58:05.743Z,15.61
2018-08-19T04:59:06.284Z,15.7
2018-08-19T05:00:05.984Z,15.63
2018-08-19T05:01:05.974Z,15.66
2018-08-19T05:02:06.439Z,15.66
2018-08-19T05:03:06.210Z,15.76
2018-08-19T05:04:06.198Z,15.7
2018-08-19T05:05:05.656Z,15.72
2018-08-19T05:06:05.908Z,15.7
2018-08-19T05:07:06.156Z,15.82
2018-08-19T05:08:06.175Z,15.81
2018-08-19T05:09:06.127Z,15.84
2018-08-19T05:10:06.120Z,15.78
2018-08-19T05:11:06.099Z,15.86
2018-08-19T05:12:05.825Z,15.89
2018-08-19T05:13:05.809Z,15.89
2018-08-19T05:14:05.537Z,15.89
2018-08-19T05:15:05.796Z,15.92
2018-08-19T05:16:05.775Z,15.93
2018-08-19T05:17:05.761Z,15.93
2018-08-19T05:18:06.016Z,15.94
2018-08-19T05:19:05.741Z,16
2018-08-19T05:20:05.983Z,16.07
2018-08-19T05:21:05.980Z,16.03
2018-08-19T05:22:05.711Z,16.14
2018-08-19T05:23:05.953Z,16.2
2018-08-19T05:24:05.945Z,16.22
2018-08-19T05:25:05.930Z,16.18
2018-08-19T05:26:05.379Z,16.27
2018-08-19T05:27:05.644Z,16.23
2018-08-19T05:28:05.623Z,16.4
2018-08-19T05:29:05.614Z,16.35
2018-08-19T05:30:05.595Z,16.5
2018-08-19T05:31:05.581Z,16.44
2018-08-19T05:32:05.570Z,16.53
2018-08-19T05:33:05.559Z,16.58
2018-08-19T05:34:05.811Z,16.67
2018-08-19T05:35:05.265Z,16.75
2018-08-19T05:36:05.531Z,16.7
2018-08-19T05:37:05.782Z,16.75
2018-08-19T05:38:06.055Z,16.75
2018-08-19T05:39:05.749Z,16.92
2018-08-19T05:40:05.734Z,16.89
2018-08-19T05:41:05.720Z,16.9
2018-08-19T05:42:05.444Z,16.93
2018-08-19T05:43:05.432Z,17.06
2018-08-19T05:44:05.416Z,17
2018-08-19T05:45:05.416Z,17.06
2018-08-19T05:46:05.135Z,17.13
2018-08-19T05:47:05.544Z,17.15
2018-08-19T05:48:05.376Z,17.2
2018-08-19T05:49:05.356Z,17.2
2018-08-19T05:50:05.345Z,17.22
2018-08-19T05:51:05.075Z,17.33
2018-08-19T05:52:05.595Z,17.32
2018-08-19T05:53:05.574Z,17.35
2018-08-19T05:54:05.820Z,17.4
2018-08-19T05:55:05.599Z,17.44
2018-08-19T05:56:05.277Z,17.5
2018-08-19T05:57:05.255Z,17.53
2018-08-19T05:58:05.250Z,17.5
2018-08-19T05:59:05.505Z,17.48
2018-08-19T06:00:05.496Z,17.54
2018-08-19T06:01:05.361Z,17.55
2018-08-19T06:02:05.198Z,17.53
2018-08-19T06:03:05.454Z,17.62
2018-08-19T06:04:05.226Z,17.69
2018-08-19T06:05:05.178Z,17.67
2018-08-19T06:06:05.147Z,17.73
2018-08-19T06:07:04.886Z,17.78
2018-08-19T06:08:05.147Z,17.78
2018-08-19T06:09:05.120Z,17.79
2018-08-19T06:10:05.378Z,17.84
2018-08-19T06:11:05.357Z,17.85
2018-08-19T06:12:04.815Z,17.85
2018-08-19T06:13:05.066Z,17.87
2018-08-19T06:14:05.074Z,17.88
2018-08-19T06:15:05.044Z,17.91
2018-08-19T06:16:05.033Z,17.94
2018-08-19T06:17:05.290Z,17.99
2018-08-19T06:18:05.269Z,18.07
2018-08-19T06:19:05.255Z,18.07
2018-08-19T06:20:05.248Z,18.12
2018-08-19T06:21:05.239Z,18.06
2018-08-19T06:22:05.231Z,18.15
2018-08-19T06:23:04.948Z,18.12
2018-08-19T06:24:04.686Z,18.07
2018-08-19T06:25:05.206Z,18.13
2018-08-19T06:26:05.189Z,18.22
2018-08-19T06:27:04.904Z,18.13
2018-08-19T06:28:05.149Z,18.28
2018-08-19T06:29:05.152Z,18.25
2018-08-19T06:30:04.864Z,18.28
2018-08-19T06:31:05.260Z,18.25
2018-08-19T06:32:05.111Z,18.33
2018-08-19T06:33:05.096Z,18.34
2018-08-19T06:34:04.822Z,18.42
2018-08-19T06:35:05.337Z,18.43
2018-08-19T06:36:04.802Z,18.5
2018-08-19T06:37:05.060Z,18.37
2018-08-19T06:38:04.832Z,18.52
2018-08-19T06:39:05.026Z,18.55
2018-08-19T06:40:04.754Z,18.55
2018-08-19T06:41:04.762Z,18.64
2018-08-19T06:42:04.993Z,18.59
2018-08-19T06:43:05.090Z,18.64
2018-08-19T06:44:04.440Z,18.67
2018-08-19T06:45:04.692Z,18.67
2018-08-19T06:46:04.680Z,18.72
2018-08-19T06:47:04.673Z,18.76
2018-08-19T06:48:04.865Z,18.74
2018-08-19T06:49:04.644Z,18.8
2018-08-19T06:50:04.904Z,18.79
2018-08-19T06:51:04.925Z,18.77
2018-08-19T06:52:04.350Z,18.82
2018-08-19T06:53:04.905Z,18.87
2018-08-19T06:54:04.588Z,18.86
2018-08-19T06:55:04.310Z,18.9
2018-08-19T06:56:04.564Z,18.97
2018-08-19T06:57:04.556Z,18.97
2018-08-19T06:58:04.544Z,19.02
2018-08-19T06:59:04.799Z,19.02
2018-08-19T07:00:04.257Z,19.06
2018-08-19T07:01:04.249Z,19.02
2018-08-19T07:02:04.764Z,19.05
2018-08-19T07:03:04.774Z,19.17
2018-08-19T07:04:05.093Z,19.1
2018-08-19T07:05:04.731Z,19.13
2018-08-19T07:06:04.456Z,19.14
2018-08-19T07:07:04.449Z,19.17
2018-08-19T07:08:04.180Z,19.29
2018-08-19T07:09:04.688Z,19.21
2018-08-19T07:10:04.409Z,19.31
2018-08-19T07:11:04.408Z,19.29
2018-08-19T07:12:04.650Z,19.39
2018-08-19T07:13:04.383Z,19.36
2018-08-19T07:14:04.644Z,19.39
2018-08-19T07:15:04.354Z,19.4
2018-08-19T07:16:04.607Z,19.4
2018-08-19T07:17:04.595Z,19.4
2018-08-19T07:18:04.322Z,19.5
2018-08-19T07:19:04.051Z,19.54
2018-08-19T07:20:04.108Z,19.53
2018-08-19T07:21:04.077Z,19.58
2018-08-19T07:22:04.278Z,19.6
2018-08-19T07:23:04.277Z,19.6
2018-08-19T07:24:03.992Z,19.61
2018-08-19T07:25:03.984Z,19.68
2018-08-19T07:26:04.549Z,19.63
2018-08-19T07:27:04.491Z,19.73
2018-08-19T07:28:03.950Z,19.84
2018-08-19T07:29:04.205Z,19.8
2018-08-19T07:30:04.469Z,19.8
2018-08-19T07:31:04.192Z,19.84
2018-08-19T07:32:03.917Z,19.9
2018-08-19T07:33:04.425Z,19.9
2018-08-19T07:34:04.153Z,19.95
2018-08-19T07:35:04.147Z,19.94
2018-08-19T07:36:03.871Z,19.93
2018-08-19T07:37:04.404Z,19.98
2018-08-19T07:38:04.132Z,20.1
2018-08-19T07:39:04.101Z,20.06
2018-08-19T07:40:04.085Z,20.09
2018-08-19T07:41:04.083Z,20.13
2018-08-19T07:42:04.074Z,20.18
2018-08-19T07:43:04.068Z,20.21
2018-08-19T07:44:03.789Z,20.2
2018-08-19T07:45:04.038Z,20.3
2018-08-19T07:46:03.761Z,20.3
2018-08-19T07:47:04.058Z,20.28
2018-08-19T07:48:04.008Z,20.42
2018-08-19T07:49:03.996Z,20.33
2018-08-19T07:50:03.985Z,20.39
2018-08-19T07:51:04.243Z,20.39
2018-08-19T07:52:04.235Z,20.46
2018-08-19T07:53:03.955Z,20.51
2018-08-19T07:54:03.945Z,20.53
2018-08-19T07:55:03.933Z,20.53
2018-08-19T07:56:03.931Z,20.5
2018-08-19T07:57:04.195Z,20.49
2018-08-19T07:58:03.634Z,20.54
2018-08-19T07:59:03.896Z,20.54
2018-08-19T08:00:03.880Z,20.54
2018-08-19T08:01:03.613Z,20.62
2018-08-19T08:02:04.129Z,20.62
2018-08-19T08:03:03.859Z,20.65
2018-08-19T08:04:03.841Z,20.72
2018-08-19T08:05:04.093Z,20.77
2018-08-19T08:06:03.831Z,20.71
2018-08-19T08:07:03.547Z,20.84
2018-08-19T08:08:04.067Z,20.87
2018-08-19T08:09:04.056Z,20.8
2018-08-19T08:10:03.793Z,20.86
2018-08-19T08:11:04.369Z,20.87
2018-08-19T08:12:04.024Z,20.93
2018-08-19T08:13:03.554Z,20.95
2018-08-19T08:14:03.480Z,20.86
2018-08-19T08:15:03.729Z,20.91
2018-08-19T08:16:03.725Z,20.96
2018-08-19T08:17:03.457Z,20.95
2018-08-19T08:18:03.701Z,21.05
2018-08-19T08:19:04.056Z,21.19
2018-08-19T08:20:03.698Z,21.32
2018-08-19T08:21:04.030Z,21.26
2018-08-19T08:22:04.143Z,21.23
2018-08-19T08:23:03.656Z,21.3
2018-08-19T08:24:03.646Z,21.21
2018-08-19T08:25:03.901Z,21.3
2018-08-19T08:26:03.633Z,21.32
2018-08-19T08:27:03.884Z,21.3
2018-08-19T08:28:03.880Z,21.27
2018-08-19T08:29:03.359Z,21.27
2018-08-19T08:30:03.913Z,21.26
2018-08-19T08:31:03.575Z,21.34
2018-08-19T08:32:03.832Z,21.26
2018-08-19T08:33:03.853Z,21.23
2018-08-19T08:34:03.549Z,21.23
2018-08-19T08:35:03.286Z,21.29
2018-08-19T08:36:03.264Z,21.32
2018-08-19T08:37:03.995Z,21.34
2018-08-19T08:38:03.510Z,21.56
2018-08-19T08:39:03.517Z,21.61
2018-08-19T08:40:03.534Z,21.67
2018-08-19T08:41:03.510Z,22.02
2018-08-19T08:42:03.492Z,22.14
2018-08-19T08:43:03.736Z,22.27
2018-08-19T08:44:03.722Z,22.31
2018-08-19T08:45:03.461Z,22.35
2018-08-19T08:46:03.723Z,22.32
2018-08-19T08:47:03.428Z,22.27
2018-08-19T08:48:04.293Z,22.07
2018-08-19T08:49:03.413Z,22.06
2018-08-19T08:50:03.414Z,22.04
2018-08-19T08:51:03.400Z,22.09
2018-08-19T08:52:03.389Z,22.06
2018-08-19T08:53:03.659Z,22.04
2018-08-19T08:54:03.372Z,22.1
2018-08-19T08:55:03.365Z,22.12
2018-08-19T08:56:03.353Z,22.07
2018-08-19T08:57:03.623Z,22.2
2018-08-19T08:58:03.071Z,22.35
2018-08-19T08:59:03.327Z,22.31
2018-08-19T09:00:03.351Z,22.35
2018-08-19T09:01:03.308Z,22.35
2018-08-19T09:02:03.310Z,22.29
2018-08-19T09:03:03.052Z,22.31
2018-08-19T09:04:03.556Z,22.32
2018-08-19T09:05:03.278Z,22.22
2018-08-19T09:06:03.281Z,22.25
2018-08-19T09:07:03.261Z,22.13
2018-08-19T09:08:03.257Z,22.1
2018-08-19T09:09:03.246Z,22.02
2018-08-19T09:10:03.501Z,22.13
2018-08-19T09:11:03.237Z,22.04
2018-08-19T09:12:03.228Z,22.16
2018-08-19T09:13:03.495Z,22.37
2018-08-19T09:14:03.317Z,22.29
2018-08-19T09:15:03.203Z,22.32
2018-08-19T09:16:03.454Z,22.29
2018-08-19T09:17:03.197Z,22.31
2018-08-19T09:18:03.502Z,22.39
2018-08-19T09:19:03.173Z,22.35
2018-08-19T09:20:03.166Z,22.39
2018-08-19T09:21:03.419Z,22.46
2018-08-19T09:22:02.881Z,22.47
2018-08-19T09:23:03.307Z,22.53
2018-08-19T09:24:03.400Z,22.62
2018-08-19T09:25:03.124Z,22.68
2018-08-19T09:26:03.376Z,22.65
2018-08-19T09:27:03.107Z,22.8
2018-08-19T09:28:03.102Z,22.8
2018-08-19T09:29:03.094Z,22.89
2018-08-19T09:30:03.354Z,22.94
2018-08-19T09:31:02.809Z,23.19
2018-08-19T09:32:02.811Z,23.09
2018-08-19T09:33:03.206Z,23.17
2018-08-19T09:34:03.060Z,23.11
2018-08-19T09:35:03.043Z,23.12
2018-08-19T09:36:02.772Z,23.24
2018-08-19T09:37:03.031Z,23.23
2018-08-19T09:38:02.760Z,23.26
2018-08-19T09:39:03.075Z,23.08
2018-08-19T09:40:03.012Z,23.14
2018-08-19T09:41:02.999Z,23.07
2018-08-19T09:42:02.998Z,23.14
2018-08-19T09:43:02.986Z,23.15
2018-08-19T09:44:02.987Z,23.17
2018-08-19T09:45:02.969Z,23.17
2018-08-19T09:46:02.701Z,23.08
2018-08-19T09:47:02.961Z,23.19
2018-08-19T09:48:04.064Z,23.01
2018-08-19T09:49:02.681Z,23.09
2018-08-19T09:50:03.196Z,23.11
2018-08-19T09:51:03.192Z,23.08
2018-08-19T09:52:02.927Z,23.09
2018-08-19T09:53:03.179Z,22.99
2018-08-19T09:54:02.910Z,23.08
2018-08-19T09:55:03.170Z,23.17
2018-08-19T09:56:03.160Z,23.26
2018-08-19T09:57:02.617Z,23.24
2018-08-19T09:58:02.614Z,23.29
2018-08-19T09:59:03.076Z,23.26
2018-08-19T10:00:02.890Z,23.32
2018-08-19T10:01:03.142Z,23.42
2018-08-19T10:02:03.119Z,23.43
2018-08-19T10:03:02.839Z,23.62
2018-08-19T10:04:02.569Z,23.57
2018-08-19T10:05:02.858Z,23.55
2018-08-19T10:06:02.554Z,23.58
2018-08-19T10:07:03.080Z,23.61
2018-08-19T10:08:02.814Z,23.49
2018-08-19T10:09:03.063Z,23.47
2018-08-19T10:10:02.803Z,23.45
2018-08-19T10:11:02.778Z,23.5
2018-08-19T10:12:02.776Z,23.55
2018-08-19T10:13:03.051Z,23.67
2018-08-19T10:14:03.041Z,23.62
2018-08-19T10:15:02.764Z,23.75
2018-08-19T10:16:02.750Z,23.7
2018-08-19T10:17:03.065Z,23.75
2018-08-19T10:18:03.049Z,23.64
2018-08-19T10:19:02.459Z,23.77
2018-08-19T10:20:02.743Z,23.67
2018-08-19T10:21:02.707Z,23.64
2018-08-19T10:22:02.709Z,23.64
2018-08-19T10:23:02.956Z,23.62
2018-08-19T10:24:02.692Z,23.68
2018-08-19T10:25:02.961Z,23.61
2018-08-19T10:26:02.968Z,23.71
2018-08-19T10:27:02.957Z,23.7
2018-08-19T10:28:02.665Z,23.8
2018-08-19T10:29:02.387Z,23.85
2018-08-19T10:30:02.653Z,23.92
2018-08-19T10:31:02.652Z,24
2018-08-19T10:32:02.647Z,24.04
2018-08-19T10:33:02.634Z,24.04
2018-08-19T10:34:02.617Z,24
2018-08-19T10:35:02.610Z,24.16
2018-08-19T10:36:02.674Z,24.14
2018-08-19T10:37:02.598Z,24.01
2018-08-19T10:38:02.851Z,24.13
2018-08-19T10:39:02.887Z,24.29
2018-08-19T10:40:02.843Z,24.49
2018-08-19T10:41:02.304Z,24.54
2018-08-19T10:42:02.703Z,24.82
2018-08-19T10:43:02.852Z,24.87
2018-08-19T10:44:02.293Z,24.98
2018-08-19T10:45:02.547Z,24.97
2018-08-19T10:46:02.816Z,25.06
2018-08-19T10:47:02.270Z,25.19
2018-08-19T10:48:02.269Z,25.32
2018-08-19T10:49:02.793Z,25.62
2018-08-19T10:50:02.519Z,25.94
2018-08-19T10:51:02.789Z,26.35
2018-08-19T10:52:02.537Z,26.69
2018-08-19T10:53:02.780Z,26.92
2018-08-19T10:54:02.769Z,27.53
2018-08-19T10:55:02.773Z,27.82
2018-08-19T10:56:02.500Z,27.89
2018-08-19T10:57:02.229Z,27.58
2018-08-19T10:58:02.511Z,27.51
2018-08-19T10:59:02.490Z,27.41
2018-08-19T11:00:02.581Z,27.71
2018-08-19T11:01:02.492Z,27.85
2018-08-19T11:02:02.753Z,27.77
2018-08-19T11:03:02.494Z,27.32
2018-08-19T11:04:02.217Z,26.79
2018-08-19T11:05:02.225Z,26.54
2018-08-19T11:06:02.491Z,26.62
2018-08-19T11:07:02.481Z,26.55
2018-08-19T11:08:02.742Z,26.8
2018-08-19T11:09:02.488Z,27.17
2018-08-19T11:10:02.218Z,27.36
2018-08-19T11:11:02.482Z,27.36
2018-08-19T11:12:02.482Z,27.57
2018-08-19T11:13:02.222Z,27.69
2018-08-19T11:14:02.751Z,27.74
2018-08-19T11:15:02.481Z,27.67
2018-08-19T11:16:02.222Z,27.85
2018-08-19T11:17:02.497Z,28.03
2018-08-19T11:18:02.755Z,28.11
2018-08-19T11:19:02.227Z,28.35
2018-08-19T11:20:02.492Z,28.72
2018-08-19T11:21:02.903Z,29.13
2018-08-19T11:22:02.756Z,29.59
2018-08-19T11:23:02.755Z,29.84
2018-08-19T11:24:02.767Z,29.96
2018-08-19T11:25:02.497Z,29.92
2018-08-19T11:26:02.505Z,29.71
2018-08-19T11:27:02.506Z,29.9
2018-08-19T11:28:02.511Z,29.97
2018-08-19T11:29:02.778Z,29.96
2018-08-19T11:30:02.791Z,30.07
2018-08-19T11:31:02.516Z,30.3
2018-08-19T11:32:02.787Z,30.33
2018-08-19T11:33:02.280Z,30.46
2018-08-19T11:34:02.371Z,30.18
2018-08-19T11:35:02.813Z,29.79
2018-08-19T11:36:02.281Z,29.34
2018-08-19T11:37:02.281Z,29.22
2018-08-19T11:38:02.807Z,29.5
2018-08-19T11:39:02.816Z,29.72
2018-08-19T11:40:02.821Z,29.82
2018-08-19T11:41:02.830Z,29.86
2018-08-19T11:42:02.299Z,29.75
2018-08-19T11:43:02.308Z,30.14
2018-08-19T11:44:02.306Z,30.26
2018-08-19T11:45:02.603Z,30.09
2018-08-19T11:46:02.848Z,30.27
2018-08-19T11:47:02.592Z,30.27
2018-08-19T11:48:02.600Z,29.86
2018-08-19T11:49:02.596Z,29.96
2018-08-19T11:50:02.858Z,30.27
2018-08-19T11:51:02.608Z,30.68
2018-08-19T11:52:02.879Z,30.61
2018-08-19T11:53:02.657Z,30.61
2018-08-19T11:54:02.881Z,30.46
2018-08-19T11:55:02.683Z,30.29
2018-08-19T11:56:02.909Z,30.45
2018-08-19T11:57:02.907Z,29.99
2018-08-19T11:58:02.378Z,29.86
2018-08-19T11:59:02.382Z,29.92
2018-08-19T12:00:02.660Z,30.29
2018-08-19T12:01:02.790Z,30.21
2018-08-19T12:02:03.091Z,30.18
2018-08-19T12:03:02.399Z,30.23
2018-08-19T12:04:02.675Z,30.11
2018-08-19T12:05:02.974Z,30.3
2018-08-19T12:06:02.704Z,30.5
2018-08-19T12:07:02.951Z,30.86
2018-08-19T12:08:02.692Z,31.11
2018-08-19T12:09:02.699Z,30.64
2018-08-19T12:10:02.708Z,30.67
2018-08-19T12:11:02.702Z,30.69
2018-08-19T12:12:02.446Z,30.61
2018-08-19T12:13:02.712Z,30.75
2018-08-19T12:14:02.991Z,30.72
2018-08-19T12:15:02.458Z,30.4
2018-08-19T12:16:02.732Z,30.31
2018-08-19T12:17:03.248Z,29.9
2018-08-19T12:18:03.007Z,30.09
2018-08-19T12:19:02.741Z,30.24
2018-08-19T12:20:02.796Z,30.43
2018-08-19T12:21:02.753Z,30.69
2018-08-19T12:22:02.765Z,31.15
2018-08-19T12:23:02.493Z,31.15
2018-08-19T12:24:02.769Z,31.31
2018-08-19T12:25:03.033Z,31.7
2018-08-19T12:26:03.038Z,31.98
2018-08-19T12:27:02.788Z,32.14
2018-08-19T12:28:03.047Z,32.1
2018-08-19T12:29:02.535Z,32
2018-08-19T12:30:02.532Z,32.33
2018-08-19T12:31:02.805Z,32.61
2018-08-19T12:32:02.820Z,32.92
2018-08-19T12:33:02.555Z,33.15
2018-08-19T12:34:03.081Z,33.45
2018-08-19T12:35:02.832Z,33.57
2018-08-19T12:36:02.564Z,33.92
2018-08-19T12:37:02.929Z,33.92
2018-08-19T12:38:02.837Z,33.63
2018-08-19T12:39:02.580Z,33.39
2018-08-19T12:40:02.842Z,33.23
2018-08-19T12:41:02.856Z,33.03
2018-08-19T12:42:02.856Z,32.8
2018-08-19T12:43:02.859Z,32.71
2018-08-19T12:44:03.128Z,32.64
2018-08-19T12:45:02.605Z,32.69
2018-08-19T12:46:02.871Z,32.47
2018-08-19T12:47:02.874Z,32.44
2018-08-19T12:48:03.147Z,32.69
2018-08-19T12:49:03.103Z,32.91
2018-08-19T12:50:03.164Z,33.11
2018-08-19T12:51:02.637Z,33.42
2018-08-19T12:52:02.903Z,33.46
2018-08-19T12:53:02.640Z,33.48
2018-08-19T12:54:02.915Z,33.61
2018-08-19T12:55:03.199Z,33.53